Vida, MT (59274)

4:50 PM MST on January 25, 2015 (GMT -0700)
APRSWXNET Richey MT US | Change Station
CLOSE
Current Station
Personal Weather Station
Location: Vida, MT
Elevation: 2227 ft
Nearby Weather Stations

Elev 2227 ft 47.79 °N, 105.18 °W | Updated 39 minutes ago

Clear
Clear
46 °F
Feels Like 44 °F
N
4
Wind Variable Wind from SW
Gusts 0.0 mph

Today
High -- | Low -- °F
--% Chance of Precip.
Yesterday
High -- | Low -- °F
Precip. -- in
7:37 AM 4:51 PM
Waxing Crescent, 37% visible
Pressure 29.91 in
Visibility 10.0 miles
Clouds Clear
Windchill 44 °F
Dew Point 36 °F
Humidity 69%
Rainfall -999.00 in
Snow Depth Not available.
UV 0 out of 12
Pollen .10 out of 12
Air Quality Not available.
Flu Activity Not available.
METAR KOLF 252253Z AUTO 28007KT 10SM CLR 08/02 A2985 RMK AO2 SLP126 T00830017

More Conditions Fewer Conditions

Pressure 29.91 in
Visibility 10.0 miles
Clouds Clear
Windchill 44 °F
Dew Point 36 °F
Humidity 69%
Rainfall -999.00 in
Snow Depth Not available.
UV 0 out of 12
Pollen .10 out of 12
Air Quality Not available.
Flu Activity Not available.
METAR KOLF 252253Z AUTO 28007KT 10SM CLR 08/02 A2985 RMK AO2 SLP126 T00830017

More Conditions Fewer Conditions

10-Day Weather Forecast

Almanac

Astronomy

Jan. 25, 2015 Rise Set
Actual Time
Civil Twilight
Nautical Twilight
Astronomical Twilight
Moon
Length of Visible Light
Length of Day
Tomorrow will be .
, % of the Moon is Illuminated

Today's Extremes

State Highs State Lows

Community

WunderPhotos

Upload Photos

1,790,048 photos uploaded!

WunderBlogs® & News

Nearby

Air Quality

  Air Quality AQ Index Pollutant
Not available.

Snow Depth

Station Depth Elevation

Earthquake Activity

City Distance Mag. Time & Date
Minimum magnitude displayed is 2.5.

Coastal Water Temperatures

Place Temperature

Nearby Weather Stations